createdAt,value
2018-12-26T00:01:36.871Z,9.87
2018-12-26T00:04:07.457Z,3.77
2018-12-26T00:06:37.256Z,8.90
2018-12-26T00:09:09.103Z,8.57
2018-12-26T00:11:39.592Z,7.77
2018-12-26T00:14:10.063Z,1.77
2018-12-26T00:16:40.666Z,2.60
2018-12-26T00:19:10.813Z,7.20
2018-12-26T00:21:40.797Z,6.83
2018-12-26T00:24:14.140Z,6.10
2018-12-26T00:26:44.206Z,7.37
2018-12-26T00:29:14.899Z,9.30
2018-12-26T00:31:45.472Z,5.23
2018-12-26T00:34:16.294Z,5.37
2018-12-26T00:36:46.475Z,4.70
2018-12-26T00:39:23.128Z,5.73
2018-12-26T00:41:53.292Z,9.70
2018-12-26T00:44:24.132Z,6.10
2018-12-26T00:46:54.099Z,8.00
2018-12-26T00:49:24.302Z,4.77
2018-12-26T00:51:55.113Z,10.97
2018-12-26T00:54:25.480Z,6.07
2018-12-26T00:56:55.535Z,5.87
2018-12-26T00:59:26.686Z,6.50
2018-12-26T01:01:57.230Z,5.73
2018-12-26T01:04:27.419Z,9.13
2018-12-26T01:06:57.997Z,5.23
2018-12-26T01:09:28.587Z,3.43
2018-12-26T01:11:58.740Z,8.30
2018-12-26T01:14:28.857Z,3.90
2018-12-26T01:16:59.294Z,5.37
2018-12-26T01:19:29.978Z,3.67
2018-12-26T01:22:00.147Z,11.07
2018-12-26T01:24:30.535Z,5.20
2018-12-26T01:27:00.311Z,7.37
2018-12-26T01:29:30.353Z,6.63
2018-12-26T01:32:00.511Z,10.23
2018-12-26T01:34:30.620Z,9.83
2018-12-26T01:37:00.419Z,6.20
2018-12-26T01:39:30.831Z,5.67
2018-12-26T01:42:00.835Z,7.87
2018-12-26T01:44:30.672Z,9.93
2018-12-26T01:47:00.656Z,10.03
2018-12-26T01:49:31.131Z,6.70
2018-12-26T01:52:01.155Z,5.00
2018-12-26T01:54:35.638Z,6.17
2018-12-26T01:57:05.973Z,6.33
2018-12-26T01:59:36.459Z,10.10
2018-12-26T02:02:06.765Z,8.10
2018-12-26T02:04:37.146Z,7.23
2018-12-26T02:07:06.876Z,9.87
2018-12-26T02:09:37.161Z,8.57
2018-12-26T02:12:07.246Z,4.30
2018-12-26T02:14:37.450Z,4.67
2018-12-26T02:17:07.415Z,3.67
2018-12-26T02:19:37.568Z,8.07
2018-12-26T02:22:07.623Z,5.27
2018-12-26T02:24:37.466Z,8.13
2018-12-26T02:27:07.239Z,5.87
2018-12-26T02:29:37.034Z,8.30
2018-12-26T02:32:07.870Z,10.23
2018-12-26T02:34:38.126Z,10.97
2018-12-26T02:37:08.076Z,2.50
2018-12-26T02:39:37.988Z,6.63
2018-12-26T02:42:07.835Z,9.30
2018-12-26T02:44:37.674Z,2.97
2018-12-26T02:47:07.579Z,10.73
2018-12-26T02:49:37.404Z,9.90
2018-12-26T02:52:07.622Z,6.90
2018-12-26T02:54:37.914Z,5.07
2018-12-26T02:57:08.930Z,4.97
2018-12-26T02:59:39.161Z,2.43
2018-12-26T03:02:09.051Z,7.47
2018-12-26T03:04:39.520Z,8.27
2018-12-26T03:07:09.339Z,6.20
2018-12-26T03:09:39.392Z,9.90
2018-12-26T03:12:09.463Z,8.23
2018-12-26T03:14:39.864Z,8.83
2018-12-26T03:17:10.079Z,7.90
2018-12-26T03:19:39.981Z,10.83
2018-12-26T03:22:09.969Z,9.40
2018-12-26T03:24:39.872Z,6.50
2018-12-26T03:27:10.079Z,6.97
2018-12-26T03:29:40.092Z,5.40
2018-12-26T03:32:10.481Z,10.97
2018-12-26T03:34:40.593Z,5.97
2018-12-26T03:37:10.344Z,6.63
2018-12-26T03:39:40.508Z,4.17
2018-12-26T03:42:10.460Z,8.00
2018-12-26T03:44:41.339Z,4.83
2018-12-26T03:47:11.139Z,10.90
2018-12-26T03:49:41.066Z,10.10
2018-12-26T03:52:11.278Z,4.47
2018-12-26T03:54:41.102Z,12.07
2018-12-26T03:57:11.263Z,11.50
2018-12-26T03:59:41.500Z,5.67
2018-12-26T04:02:11.486Z,10.83
2018-12-26T04:04:42.006Z,7.77
2018-12-26T04:07:12.515Z,8.43
2018-12-26T04:09:42.999Z,12.30
2018-12-26T04:12:13.311Z,8.90
2018-12-26T04:14:43.797Z,9.70
2018-12-26T04:17:14.029Z,7.77
2018-12-26T04:19:44.118Z,9.63
2018-12-26T04:22:15.162Z,11.10
2018-12-26T04:24:48.537Z,8.77
2018-12-26T04:27:18.903Z,11.27
2018-12-26T04:29:48.834Z,9.37
2018-12-26T04:32:18.629Z,12.43
2018-12-26T04:34:50.011Z,9.10
2018-12-26T04:37:20.075Z,11.83
2018-12-26T04:39:49.988Z,8.07
2018-12-26T04:42:20.285Z,10.83
2018-12-26T04:44:52.751Z,10.00
2018-12-26T04:47:23.153Z,10.57
2018-12-26T04:49:53.758Z,11.17
2018-12-26T04:52:23.928Z,13.10
2018-12-26T04:54:56.344Z,10.63
2018-12-26T04:57:25.970Z,10.37
2018-12-26T04:59:55.839Z,10.77
2018-12-26T05:02:26.285Z,9.77
2018-12-26T05:04:56.564Z,8.80
2018-12-26T05:07:26.506Z,11.53
2018-12-26T05:09:56.269Z,14.00
2018-12-26T05:12:26.677Z,12.97
2018-12-26T05:14:56.469Z,5.17
2018-12-26T05:17:26.515Z,11.33
2018-12-26T05:19:56.500Z,11.80
2018-12-26T05:22:26.353Z,12.83
2018-12-26T05:24:56.737Z,13.30
2018-12-26T05:27:34.125Z,15.63
2018-12-26T05:29:58.577Z,15.47
2018-12-26T05:32:28.663Z,14.03
2018-12-26T05:34:58.410Z,12.37
2018-12-26T05:37:28.616Z,12.77
2018-12-26T05:39:58.421Z,14.97
2018-12-26T05:42:28.145Z,13.20
2018-12-26T05:44:59.822Z,3.53
2018-12-26T05:47:30.118Z,9.60
2018-12-26T05:50:00.724Z,9.50
2018-12-26T05:52:31.020Z,9.67
2018-12-26T05:55:01.556Z,11.80
2018-12-26T05:57:31.594Z,16.07
2018-12-26T06:00:01.518Z,14.87
2018-12-26T06:02:32.039Z,12.37
2018-12-26T06:05:02.328Z,6.60
2018-12-26T06:07:32.470Z,13.80
2018-12-26T06:10:04.578Z,15.23
2018-12-26T06:12:34.647Z,15.90
2018-12-26T06:15:04.529Z,7.27
2018-12-26T06:17:34.739Z,9.50
2018-12-26T06:20:05.088Z,15.47
2018-12-26T06:22:35.120Z,17.57
2018-12-26T06:25:05.062Z,15.53
2018-12-26T06:27:35.102Z,13.70
2018-12-26T06:30:05.347Z,9.43
2018-12-26T06:32:35.546Z,17.53
2018-12-26T06:35:05.818Z,18.20
2018-12-26T06:37:35.860Z,11.00
2018-12-26T06:40:05.905Z,17.63
2018-12-26T06:42:35.708Z,14.53
2018-12-26T06:45:05.501Z,15.00
2018-12-26T06:47:35.816Z,6.87
2018-12-26T06:50:06.663Z,16.50
2018-12-26T06:52:37.161Z,13.97
2018-12-26T06:55:07.688Z,12.80
2018-12-26T06:57:38.540Z,11.50
2018-12-26T07:00:08.999Z,17.43
2018-12-26T07:02:40.064Z,12.33
2018-12-26T07:05:10.330Z,5.67
2018-12-26T07:07:40.421Z,12.13
2018-12-26T07:10:10.432Z,15.00
2018-12-26T07:12:48.391Z,8.30
2018-12-26T07:15:18.337Z,6.43
2018-12-26T07:17:48.171Z,18.33
2018-12-26T07:20:18.417Z,12.83
2018-12-26T07:22:49.472Z,8.37
2018-12-26T07:25:19.581Z,10.70
2018-12-26T07:27:49.593Z,12.13
2018-12-26T07:30:19.693Z,16.30
2018-12-26T07:32:49.800Z,13.23
2018-12-26T07:35:20.062Z,10.00
2018-12-26T07:37:50.440Z,14.30
2018-12-26T07:40:20.424Z,6.67
2018-12-26T07:42:50.922Z,7.03
2018-12-26T07:45:21.979Z,7.70
2018-12-26T07:47:52.786Z,15.33
2018-12-26T07:50:22.714Z,8.43
2018-12-26T07:53:00.014Z,15.97
2018-12-26T07:55:30.212Z,10.43
2018-12-26T07:58:00.370Z,8.10
2018-12-26T08:00:30.775Z,13.90
2018-12-26T08:03:02.938Z,15.77
2018-12-26T08:05:34.317Z,14.80
2018-12-26T08:08:05.545Z,14.43
2018-12-26T08:10:35.463Z,14.10
2018-12-26T08:13:06.086Z,15.30
2018-12-26T08:15:35.808Z,13.57
2018-12-26T08:18:05.841Z,13.30
2018-12-26T08:20:36.928Z,11.67
2018-12-26T08:23:08.021Z,15.53
2018-12-26T08:25:38.122Z,14.40
2018-12-26T08:28:08.019Z,17.57
2018-12-26T08:30:38.179Z,15.30
2018-12-26T08:33:08.252Z,11.73
2018-12-26T08:35:38.475Z,8.30
2018-12-26T08:38:08.645Z,13.60
2018-12-26T08:40:38.544Z,14.57
2018-12-26T08:43:09.650Z,7.43
2018-12-26T08:45:40.077Z,16.53
2018-12-26T08:48:10.259Z,10.23
2018-12-26T08:50:40.066Z,17.00
2018-12-26T08:53:10.060Z,14.57
2018-12-26T08:55:40.193Z,13.97
2018-12-26T08:58:12.485Z,14.83
2018-12-26T09:00:42.569Z,15.67
2018-12-26T09:03:14.332Z,10.90
2018-12-26T09:05:44.483Z,16.03
2018-12-26T09:08:15.370Z,13.47
2018-12-26T09:10:45.430Z,15.77
2018-12-26T09:13:15.548Z,15.60
2018-12-26T09:15:45.574Z,13.03
2018-12-26T09:18:16.182Z,9.03
2018-12-26T09:20:58.175Z,15.17
2018-12-26T09:24:07.784Z,8.00
2018-12-26T09:26:52.081Z,17.73
2018-12-26T09:29:40.907Z,15.03
2018-12-26T09:32:31.296Z,16.33
2018-12-26T09:35:20.892Z,16.70
2018-12-26T09:38:03.944Z,16.80
2018-12-26T09:40:46.098Z,5.97
2018-12-26T09:43:29.807Z,18.43
2018-12-26T09:46:20.192Z,17.03
2018-12-26T09:49:04.128Z,15.67
2018-12-26T09:51:51.891Z,13.47
2018-12-26T09:54:37.019Z,13.97
2018-12-26T09:57:20.378Z,16.07
2018-12-26T10:00:07.465Z,15.33
2018-12-26T10:02:49.045Z,11.37
2018-12-26T10:05:32.093Z,16.63
2018-12-26T10:08:04.124Z,10.57
2018-12-26T10:10:33.768Z,12.33
2018-12-26T10:13:04.259Z,17.50
2018-12-26T10:15:33.883Z,17.33
2018-12-26T10:18:15.592Z,15.20
2018-12-26T10:20:57.438Z,17.10
2018-12-26T10:23:51.696Z,9.77
2018-12-26T10:26:34.005Z,20.77
2018-12-26T10:29:36.464Z,15.47
2018-12-26T10:32:09.532Z,18.20
2018-12-26T10:34:39.311Z,15.97
2018-12-26T10:37:09.615Z,17.70
2018-12-26T10:39:41.610Z,12.83
2018-12-26T10:42:11.348Z,12.60
2018-12-26T10:44:41.776Z,16.10
2018-12-26T10:47:12.662Z,18.17
2018-12-26T10:49:42.246Z,12.33
2018-12-26T10:52:11.981Z,16.23
2018-12-26T10:54:42.837Z,10.47
2018-12-26T10:57:12.505Z,9.77
2018-12-26T10:59:42.710Z,15.90
2018-12-26T11:02:12.519Z,14.77
2018-12-26T11:04:42.127Z,11.07
2018-12-26T11:07:11.738Z,16.60
2018-12-26T11:09:41.765Z,14.70
2018-12-26T11:12:11.698Z,13.10
2018-12-26T11:14:42.793Z,8.47
2018-12-26T11:17:12.631Z,17.23
2018-12-26T11:19:42.297Z,17.00
2018-12-26T11:22:11.967Z,15.77
2018-12-26T11:24:43.148Z,15.50
2018-12-26T11:27:12.953Z,15.83
2018-12-26T11:29:43.019Z,11.60
2018-12-26T11:32:13.038Z,13.20
2018-12-26T11:34:43.302Z,16.23
2018-12-26T11:37:13.479Z,5.63
2018-12-26T11:39:43.410Z,13.27
2018-12-26T11:42:13.283Z,15.13
2018-12-26T11:44:43.078Z,12.30
2018-12-26T11:47:13.003Z,12.63
2018-12-26T11:49:43.443Z,9.57
2018-12-26T11:52:13.540Z,14.50
2018-12-26T11:54:43.269Z,11.40
2018-12-26T11:57:13.575Z,17.63
2018-12-26T11:59:43.515Z,16.30
2018-12-26T12:02:20.591Z,14.23
2018-12-26T12:04:45.829Z,16.07
2018-12-26T12:07:17.383Z,17.40
2018-12-26T12:09:48.001Z,16.73
2018-12-26T12:12:20.438Z,17.80
2018-12-26T12:14:50.599Z,14.07
2018-12-26T12:17:21.465Z,19.47
2018-12-26T12:19:51.913Z,17.83
2018-12-26T12:22:21.685Z,15.13
2018-12-26T12:24:51.334Z,19.47
2018-12-26T12:27:21.431Z,16.43
2018-12-26T12:29:51.020Z,17.83
2018-12-26T12:32:22.816Z,15.00
2018-12-26T12:34:52.849Z,18.27
2018-12-26T12:37:23.112Z,18.20
2018-12-26T12:39:53.443Z,14.83
2018-12-26T12:42:24.487Z,14.40
2018-12-26T12:44:56.490Z,17.23
2018-12-26T12:47:26.503Z,18.43
2018-12-26T12:49:56.478Z,18.20
2018-12-26T12:52:26.382Z,13.43
2018-12-26T12:54:56.284Z,14.23
2018-12-26T12:57:25.966Z,13.57
2018-12-26T13:00:00.332Z,18.90
2018-12-26T13:02:30.081Z,14.53
2018-12-26T13:04:59.947Z,19.83
2018-12-26T13:07:29.769Z,19.43
2018-12-26T13:09:59.674Z,14.70
2018-12-26T13:12:29.780Z,19.53
2018-12-26T13:14:59.842Z,18.17
2018-12-26T13:17:30.577Z,17.83
2018-12-26T13:20:01.264Z,17.80
2018-12-26T13:22:30.958Z,10.13
2018-12-26T13:25:00.692Z,16.20
2018-12-26T13:27:30.524Z,18.33
2018-12-26T13:30:00.261Z,16.37
2018-12-26T13:32:30.320Z,11.03
2018-12-26T13:35:00.211Z,17.97
2018-12-26T13:37:30.186Z,16.77
2018-12-26T13:40:00.432Z,20.47
2018-12-26T13:42:30.383Z,18.17
2018-12-26T13:45:01.570Z,14.97
2018-12-26T13:47:31.361Z,17.33
2018-12-26T13:50:02.231Z,18.10
2018-12-26T13:52:32.119Z,19.17
2018-12-26T13:55:01.738Z,16.77
2018-12-26T13:57:32.112Z,18.77
2018-12-26T14:00:02.402Z,19.57
2018-12-26T14:02:32.727Z,18.97
2018-12-26T14:05:03.103Z,17.10
2018-12-26T14:07:33.016Z,15.83
2018-12-26T14:10:03.199Z,20.23
2018-12-26T14:12:33.024Z,16.67
2018-12-26T14:15:05.371Z,17.53
2018-12-26T14:17:35.390Z,17.93
2018-12-26T14:20:06.532Z,12.97
2018-12-26T14:22:38.284Z,17.67
2018-12-26T14:25:08.839Z,13.20
2018-12-26T14:27:39.111Z,16.10
2018-12-26T14:30:11.306Z,17.67
2018-12-26T14:32:41.496Z,7.83
2018-12-26T14:35:11.956Z,18.80
2018-12-26T14:37:43.303Z,12.60
2018-12-26T14:40:14.412Z,18.70
2018-12-26T14:42:44.833Z,13.53
2018-12-26T14:45:16.633Z,20.10
2018-12-26T14:47:46.591Z,17.40
2018-12-26T14:50:17.339Z,16.77
2018-12-26T14:52:47.709Z,13.17
2018-12-26T14:55:17.684Z,14.63
2018-12-26T14:57:47.913Z,17.90
2018-12-26T15:00:20.025Z,18.53
2018-12-26T15:02:49.936Z,13.53
2018-12-26T15:05:20.827Z,17.60
2018-12-26T15:07:51.209Z,20.37
2018-12-26T15:10:22.601Z,20.37
2018-12-26T15:12:52.945Z,16.27
2018-12-26T15:15:22.987Z,17.10
2018-12-26T15:17:54.781Z,18.47
2018-12-26T15:20:25.071Z,17.87
2018-12-26T15:22:55.339Z,16.97
2018-12-26T15:25:25.697Z,18.50
2018-12-26T15:27:56.448Z,18.53
2018-12-26T15:30:28.726Z,17.57
2018-12-26T15:32:58.913Z,14.93
2018-12-26T15:35:29.305Z,17.20
2018-12-26T15:38:00.169Z,12.73
2018-12-26T15:40:30.610Z,18.20
2018-12-26T15:43:01.108Z,17.77
2018-12-26T15:45:31.369Z,16.20
2018-12-26T15:48:03.330Z,18.40
2018-12-26T15:50:34.294Z,16.00
2018-12-26T15:53:05.310Z,15.10
2018-12-26T15:55:36.123Z,15.30
2018-12-26T15:58:06.501Z,16.47
2018-12-26T16:00:37.612Z,18.50
2018-12-26T16:03:08.074Z,17.67
2018-12-26T16:05:38.880Z,7.73
2018-12-26T16:08:09.265Z,14.90
2018-12-26T16:10:39.381Z,18.20
2018-12-26T16:13:11.262Z,16.70
2018-12-26T16:15:47.171Z,14.30
2018-12-26T16:18:24.640Z,17.23
2018-12-26T16:21:02.190Z,16.93
2018-12-26T16:23:39.729Z,15.83
2018-12-26T16:26:15.816Z,17.53
2018-12-26T16:28:53.524Z,16.20
2018-12-26T16:31:30.619Z,15.63
2018-12-26T16:34:01.367Z,19.10
2018-12-26T16:36:31.713Z,15.07
2018-12-26T16:39:02.777Z,17.23
2018-12-26T16:41:33.194Z,16.43
2018-12-26T16:44:03.487Z,17.03
2018-12-26T16:46:33.872Z,14.30
2018-12-26T16:49:04.153Z,16.60
2018-12-26T16:51:34.353Z,16.43
2018-12-26T16:54:04.453Z,14.80
2018-12-26T16:56:34.584Z,15.37
2018-12-26T16:59:06.025Z,15.63
2018-12-26T17:01:36.385Z,16.47
2018-12-26T17:04:06.598Z,16.47
2018-12-26T17:06:40.777Z,15.63
2018-12-26T17:09:15.565Z,15.97
2018-12-26T17:11:46.354Z,15.93
2018-12-26T17:14:16.633Z,16.33
2018-12-26T17:16:47.538Z,14.77
2018-12-26T17:19:18.101Z,14.70
2018-12-26T17:21:49.216Z,15.63
2018-12-26T17:24:19.878Z,14.60
2018-12-26T17:26:50.145Z,16.37
2018-12-26T17:29:21.424Z,16.27
2018-12-26T17:31:52.626Z,15.87
2018-12-26T17:34:23.551Z,16.23
2018-12-26T17:36:53.547Z,15.33
2018-12-26T17:39:25.549Z,15.60
2018-12-26T17:41:56.590Z,15.60
2018-12-26T17:44:27.827Z,16.03
2018-12-26T17:46:58.319Z,15.30
2018-12-26T17:49:28.285Z,14.43
2018-12-26T17:51:59.873Z,15.03
2018-12-26T17:55:06.607Z,15.47
2018-12-26T17:57:40.457Z,14.07
2018-12-26T18:00:48.548Z,13.17
2018-12-26T18:03:18.436Z,15.53
2018-12-26T18:05:48.534Z,14.93
2018-12-26T18:08:18.587Z,13.67
2018-12-26T18:10:48.565Z,13.90
2018-12-26T18:13:18.761Z,14.10
2018-12-26T18:15:48.945Z,14.73
2018-12-26T18:18:19.015Z,14.90
2018-12-26T18:20:48.858Z,14.53
2018-12-26T18:23:19.008Z,14.03
2018-12-26T18:25:49.197Z,15.73
2018-12-26T18:28:19.443Z,13.87
2018-12-26T18:30:49.293Z,15.80
2018-12-26T18:33:19.934Z,16.47
2018-12-26T18:35:49.820Z,12.60
2018-12-26T18:38:19.851Z,16.73
2018-12-26T18:40:50.139Z,14.97
2018-12-26T18:43:20.134Z,15.53
2018-12-26T18:45:50.252Z,16.93
2018-12-26T18:48:20.632Z,15.63
2018-12-26T18:50:50.378Z,14.83
2018-12-26T18:53:20.501Z,16.63
2018-12-26T18:55:50.541Z,14.30
2018-12-26T18:58:39.719Z,14.47
2018-12-26T19:01:09.502Z,16.47
2018-12-26T19:03:39.590Z,16.33
2018-12-26T19:06:09.679Z,15.03
2018-12-26T19:08:40.381Z,11.47
2018-12-26T19:11:10.692Z,15.60
2018-12-26T19:13:40.942Z,15.37
2018-12-26T19:16:10.745Z,12.03
2018-12-26T19:18:41.194Z,16.30
2018-12-26T19:21:11.626Z,16.40
2018-12-26T19:23:41.839Z,11.27
2018-12-26T19:26:12.064Z,13.93
2018-12-26T19:28:41.983Z,14.70
2018-12-26T19:31:11.861Z,14.43
2018-12-26T19:33:41.920Z,8.63
2018-12-26T19:36:11.862Z,14.40
2018-12-26T19:38:41.943Z,14.50
2018-12-26T19:41:11.836Z,13.90
2018-12-26T19:43:41.633Z,13.67
2018-12-26T19:46:12.094Z,13.67
2018-12-26T19:48:41.994Z,14.33
2018-12-26T19:51:12.049Z,14.13
2018-12-26T19:53:49.280Z,14.10
2018-12-26T19:56:19.579Z,9.67
2018-12-26T19:58:49.770Z,12.37
2018-12-26T20:01:19.888Z,13.97
2018-12-26T20:03:51.907Z,11.67
2018-12-26T20:06:22.305Z,11.23
2018-12-26T20:08:52.562Z,14.47
2018-12-26T20:11:22.413Z,13.70
2018-12-26T20:13:52.300Z,14.43
2018-12-26T20:16:22.651Z,13.07
2018-12-26T20:18:55.573Z,15.17
2018-12-26T20:21:25.779Z,11.03
2018-12-26T20:23:55.764Z,11.97
2018-12-26T20:26:25.880Z,12.90
2018-12-26T20:28:55.712Z,12.33
2018-12-26T20:31:26.425Z,7.63
2018-12-26T20:33:56.554Z,10.53
2018-12-26T20:36:28.293Z,11.60
2018-12-26T20:38:58.609Z,12.67
2018-12-26T20:41:30.721Z,8.97
2018-12-26T20:44:00.794Z,13.40
2018-12-26T20:46:30.701Z,10.70
2018-12-26T20:49:01.055Z,11.50
2018-12-26T20:51:30.892Z,7.37
2018-12-26T20:54:01.053Z,13.30
2018-12-26T20:56:31.427Z,11.47
2018-12-26T20:59:05.893Z,11.80
2018-12-26T21:01:35.823Z,8.60
2018-12-26T21:04:05.792Z,12.23
2018-12-26T21:06:36.105Z,13.20
2018-12-26T21:09:08.250Z,9.73
2018-12-26T21:11:38.138Z,11.83
2018-12-26T21:14:09.420Z,10.37
2018-12-26T21:16:39.353Z,11.47
2018-12-26T21:19:09.243Z,10.57
2018-12-26T21:21:39.693Z,11.80
2018-12-26T21:24:09.792Z,10.13
2018-12-26T21:26:39.693Z,10.77
2018-12-26T21:29:09.834Z,8.90
2018-12-26T21:31:39.923Z,12.00
2018-12-26T21:34:11.047Z,11.07
2018-12-26T21:36:41.604Z,11.67
2018-12-26T21:39:11.668Z,11.97
2018-12-26T21:41:41.498Z,12.40
2018-12-26T21:44:11.275Z,11.37
2018-12-26T21:46:41.333Z,12.73
2018-12-26T21:49:11.196Z,9.77
2018-12-26T21:51:41.145Z,11.07
2018-12-26T21:54:11.130Z,11.40
2018-12-26T21:56:41.079Z,12.77
2018-12-26T21:59:11.109Z,7.23
2018-12-26T22:01:41.247Z,12.70
2018-12-26T22:04:11.514Z,6.83
2018-12-26T22:06:41.465Z,10.27
2018-12-26T22:09:12.439Z,12.23
2018-12-26T22:11:42.420Z,8.70
2018-12-26T22:14:12.330Z,11.37
2018-12-26T22:16:42.798Z,10.80
2018-12-26T22:19:13.220Z,11.50
2018-12-26T22:21:43.362Z,13.03
2018-12-26T22:24:14.090Z,12.60
2018-12-26T22:26:44.192Z,1.97
2018-12-26T22:29:14.513Z,12.20
2018-12-26T22:31:44.588Z,10.80
2018-12-26T22:34:14.893Z,10.30
2018-12-26T22:36:46.131Z,11.03
2018-12-26T22:39:16.165Z,10.93
2018-12-26T22:41:46.317Z,10.77
2018-12-26T22:44:27.547Z,9.00
2018-12-26T22:46:50.078Z,10.33
2018-12-26T22:49:20.125Z,7.20
2018-12-26T22:51:50.535Z,4.50
2018-12-26T22:54:20.836Z,11.57
2018-12-26T22:56:50.801Z,9.73
2018-12-26T22:59:25.083Z,4.43
2018-12-26T23:01:55.364Z,9.60
2018-12-26T23:04:25.137Z,9.43
2018-12-26T23:06:55.350Z,9.73
2018-12-26T23:09:25.492Z,10.70
2018-12-26T23:11:55.456Z,9.33
2018-12-26T23:14:25.494Z,11.43
2018-12-26T23:16:55.876Z,4.70
2018-12-26T23:19:26.934Z,8.87
2018-12-26T23:21:57.447Z,10.90
2018-12-26T23:24:27.532Z,7.03
2018-12-26T23:26:57.590Z,10.67
2018-12-26T23:29:27.913Z,9.70
2018-12-26T23:31:58.455Z,10.37
2018-12-26T23:34:28.872Z,10.67
2018-12-26T23:36:58.677Z,10.57
2018-12-26T23:39:28.637Z,9.70
2018-12-26T23:41:58.592Z,8.93
2018-12-26T23:44:28.880Z,8.07
2018-12-26T23:46:59.068Z,7.07
2018-12-26T23:49:29.254Z,7.63
2018-12-26T23:51:59.734Z,4.63
2018-12-26T23:54:29.687Z,11.43
2018-12-26T23:57:00.257Z,10.87
2018-12-26T23:59:30.578Z,12.20
